This is the latest recevied weather packets stored in our database for station/object GW1572. If no packets are shown the sender has not sent any weather packets the latest 10 day(s).
| Time | Temp. | Humidity | Pressure | Rain* | Wind** | Luminosity | Snow |
|---|---|---|---|---|---|---|---|
| 1777780492 | 3.33° C | 88% | 1010.4 hPa | 0 mm | - | - | - |
| 1777779736 | 3.33° C | 87% | 1010.1 hPa | 0 mm | - | - | - |
| 1777777224 | 4.44° C | 83% | 1010.1 hPa | 0 mm | - | - | - |
| 1777775778 | 5° C | 80% | 1009.8 hPa | 0 mm | - | - | - |
| 1777771814 | 6.11° C | 75% | 1009.1 hPa | 0 mm | - | - | - |
| 1777769323 | 7.78° C | 68% | 1008.8 hPa | 0 mm | - | - | - |
| 1777767495 | 10° C | 58% | 1008.1 hPa | 0 mm | - | - | - |
| 1777765721 | 11.67° C | 46% | 1008.1 hPa | 0 mm | - | - | - |
| 1777763532 | 12.22° C | 45% | 1007.4 hPa | 0 mm | - | - | - |
| 1777758851 | 13.33° C | 45% | 1007.1 hPa | 0 mm | - | - | - |
| 1777755634 | 13.89° C | 43% | 1007.1 hPa | 0 mm | - | - | - |
| 1777751654 | 12.78° C | 50% | 1007.1 hPa | 0 mm | - | - | - |
| 1777750969 | 12.78° C | 51% | 1007.4 hPa | 0 mm | - | - | - |
| 1777746280 | 12.78° C | 48% | 1007.7 hPa | 0 mm | - | - | - |
| 1777745574 | 12.78° C | 50% | 1008.1 hPa | 0 mm | - | - | - |
| 1777737984 | 12.78° C | 51% | 1008.8 hPa | 0 mm | - | - | - |
| 1777735839 | 12.22° C | 51% | 1008.8 hPa | 0 mm | - | - | - |
| 1777735453 | 12.22° C | 53% | 1008.8 hPa | 0 mm | - | - | - |
| 1777734042 | 11.11° C | 56% | 1009.1 hPa | 0 mm | - | - | - |
| 1777732610 | 10° C | 67% | 1009.1 hPa | 0 mm | - | - | - |
| 1777727567 | 5.56° C | 97% | 1009.1 hPa | 0 mm | - | - | - |
| 1777726834 | 5° C | 99% | 1009.1 hPa | 0 mm | - | - | - |
| 1777723604 | 3.89° C | 99% | 1009.1 hPa | 0 mm | - | - | - |
| 1777722891 | 3.89° C | 99% | 1009.1 hPa | 0 mm | - | - | - |
| 1777722152 | 3.33° C | 99% | 1009.1 hPa | 0 mm | - | - | - |
* Rain since midnight (hover to see other rain measurements)
** Current wind speed in m/s (hover to see current wind gust speed)